Time;durP1;ratioP1;P1;durP2;ratioP2;P2;SDS_P1;SDS_P2;PMS_P1;PMS_P2;Temp;Humidity;BMP_temperature;BMP_pressure;BME280_temperature;BME280_humidity;BME280_pressure;Samples;Min_cycle;Max_cycle;Signal;HPM_P1;HPM_P2
2023/09/05 05:26:34;;;;;;;2.40;1.40;;;;;;;;;;20827775;28;20218;-82
2023/09/05 05:36:36;;;;;;;3.37;1.00;;;;;;;;;;20847672;28;20242;-83
2023/09/05 05:46:37;;;;;;;2.07;1.07;;;;;;;;;;20837083;28;20694;-83
2023/09/05 05:56:39;;;;;;;3.70;1.50;;;;;;;;;;20780726;28;20768;-83
2023/09/05 06:06:43;;;;;;;5.97;1.30;;;20.60;99.90;;;;;;20754766;28;20229;-83
2023/09/05 06:16:46;;;;;;;1.07;0.70;;;;;;;;;;20851484;28;20237;-82
2023/09/05 06:26:48;;;;;;;1.40;0.60;;;;;;;;;;20863593;28;20282;-83
2023/09/05 06:36:51;;;;;;;1.00;0.67;;;;;;;;;;20838028;28;20233;-83
2023/09/05 06:46:53;;;;;;;2.37;1.10;;;;;;;;;;20816469;28;20576;-83
2023/09/05 06:56:54;;;;;;;2.13;0.80;;;;;;;;;;20805229;28;20277;-83
2023/09/05 07:06:56;;;;;;;1.43;0.73;;;;;;;;;;20838107;28;20291;-83
2023/09/05 07:16:58;;;;;;;2.10;0.80;;;;;;;;;;20779109;28;20288;-82
2023/09/05 07:26:59;;;;;;;2.00;0.87;;;;;;;;;;20780703;28;20253;-83
2023/09/05 07:37:03;;;;;;;1.33;0.70;;;;;;;;;;20808055;28;20270;-83
2023/09/05 07:47:05;;;;;;;1.50;0.70;;;;;;;;;;20814410;28;20272;-82
2023/09/05 07:57:06;;;;;;;1.67;0.60;;;;;;;;;;20794431;28;20243;-84
2023/09/05 08:07:08;;;;;;;4.65;0.77;;;;;;;;;;20815524;28;20226;-83
2023/09/05 08:17:10;;;;;;;1.30;0.67;;;;;;;;;;20770214;28;20301;-83
2023/09/05 08:27:14;;;;;;;3.83;0.88;;;;;;;;;;20777178;28;20228;-83
2023/09/05 08:37:17;;;;;;;1.45;0.60;;;;;;;;;;20820786;28;20333;-83
2023/09/05 08:47:18;;;;;;;1.08;0.68;;;;;;;;;;20832013;28;20248;-83
2023/09/05 08:57:23;;;;;;;0.77;0.60;;;;;;;;;;20835338;28;20254;-82
2023/09/05 09:07:27;;;;;;;0.93;0.70;;;;;;;;;;20810650;28;20291;-84
2023/09/05 09:17:29;;;;;;;1.02;0.63;;;;;;;;;;20792068;28;20307;-84
2023/09/05 09:27:31;;;;;;;1.20;0.80;;;24.10;99.90;;;;;;20777427;28;20251;-84
2023/09/05 09:37:33;;;;;;;1.85;0.60;;;24.20;99.90;;;;;;20780675;28;20303;-84
2023/09/05 09:47:38;;;;;;;1.13;0.68;;;;;;;;;;20775985;28;20232;-83
2023/09/05 09:58:01;;;;;;;1.20;0.70;;;;;;;;;;20802588;28;20265;-84
2023/09/05 10:08:03;;;;;;;1.50;0.60;;;;;;;;;;20785650;28;20221;-83
2023/09/05 10:18:12;;;;;;;1.10;0.60;;;25.20;99.90;;;;;;20823806;28;20237;-83
2023/09/05 10:28:14;;;;;;;0.75;0.60;;;;;;;;;;20787731;28;20228;-83
2023/09/05 10:38:16;;;;;;;0.90;0.60;;;;;;;;;;20796434;28;20786;-83
2023/09/05 10:48:32;;;;;;;1.45;0.60;;;;;;;;;;20751040;28;20578;-84
2023/09/05 10:58:51;;;;;;;0.80;0.60;;;;;;;;;;20840508;28;20299;-85
2023/09/05 11:09:01;;;;;;;2.25;0.73;;;;;;;;;;20827473;28;20696;-84
2023/09/05 11:19:03;;;;;;;1.08;0.70;;;;;;;;;;20824952;28;20241;-83
2023/09/05 11:29:06;;;;;;;2.95;0.60;;;;;;;;;;20801736;28;20224;-84
2023/09/05 11:39:09;;;;;;;2.28;0.63;;;;;;;;;;20805616;28;20314;-84
2023/09/05 11:49:10;;;;;;;1.45;0.60;;;;;;;;;;20815027;28;20283;-84
2023/09/05 11:59:12;;;;;;;1.58;0.77;;;;;;;;;;20834174;28;20283;-84
2023/09/05 12:09:13;;;;;;;1.30;0.60;;;;;;;;;;20826933;28;20267;-84
2023/09/05 12:19:17;;;;;;;1.25;0.77;;;;;;;;;;20768314;28;20317;-84
2023/09/05 12:29:23;;;;;;;0.85;0.52;;;;;;;;;;20762622;28;20298;-85
2023/09/05 12:39:24;;;;;;;0.90;0.43;;;;;;;;;;20810153;28;20331;-84
2023/09/05 12:49:26;;;;;;;1.10;0.52;;;;;;;;;;20813590;28;20232;-84
2023/09/05 12:59:29;;;;;;;0.93;0.60;;;;;;;;;;20830549;28;20241;-85
2023/09/05 13:09:30;;;;;;;1.80;0.50;;;;;;;;;;20788119;28;20284;-84
2023/09/05 13:19:33;;;;;;;1.92;0.60;;;;;;;;;;20805456;28;20231;-83
2023/09/05 13:29:35;;;;;;;0.88;0.52;;;;;;;;;;20824500;28;20283;-83
2023/09/05 13:39:37;;;;;;;0.90;0.45;;;;;;;;;;20831906;28;20297;-84
2023/09/05 13:49:38;;;;;;;1.33;0.30;;;;;;;;;;20837406;28;20234;-84
2023/09/05 13:59:40;;;;;;;0.90;0.60;;;;;;;;;;20791372;28;20306;-83
2023/09/05 14:09:42;;;;;;;0.80;0.57;;;;;;;;;;20824129;28;20225;-81
2023/09/05 14:19:44;;;;;;;0.60;0.40;;;;;;;;;;20796310;28;20958;-84
2023/09/05 14:29:45;;;;;;;1.95;0.50;;;;;;;;;;20803416;28;20281;-83
2023/09/05 14:39:48;;;;;;;0.73;0.40;;;;;;;;;;20772453;28;20295;-84
2023/09/05 14:49:49;;;;;;;5.68;0.57;;;;;;;;;;20801698;28;20723;-83
2023/09/05 14:59:51;;;;;;;1.55;0.57;;;;;;;;;;20789695;28;20300;-83
2023/09/05 15:09:53;;;;;;;0.47;0.40;;;;;;;;;;20779334;28;20232;-84
2023/09/05 15:19:55;;;;;;;1.05;0.47;;;;;;;;;;20751112;28;20237;-84
2023/09/05 15:29:56;;;;;;;0.57;0.40;;;;;;;;;;20832472;28;20218;-83
2023/09/05 15:39:58;;;;;;;1.17;0.40;;;;;;;;;;20787903;28;20237;-84
2023/09/05 15:50:00;;;;;;;1.63;0.50;;;;;;;;;;20844726;28;20241;-82
2023/09/05 16:00:04;;;;;;;1.70;0.47;;;;;;;;;;20818893;28;20235;-82
2023/09/05 16:10:13;;;;;;;0.93;0.40;;;;;;;;;;20827596;28;20226;-82
2023/09/05 16:20:15;;;;;;;0.52;0.30;;;;;;;;;;20815286;28;20291;-82
2023/09/05 16:30:17;;;;;;;2.45;0.40;;;;;;;;;;20799539;28;20549;-83
2023/09/05 16:40:19;;;;;;;1.02;0.40;;;;;;;;;;20815657;28;20225;-83
2023/09/05 16:50:20;;;;;;;0.55;0.35;;;;;;;;;;20803200;28;20224;-82
2023/09/05 17:00:23;;;;;;;0.68;0.40;;;;;;;;;;20796435;28;20639;-82
2023/09/05 17:10:25;;;;;;;1.70;0.32;;;;;;;;;;20853818;28;20279;-83
2023/09/05 17:20:26;;;;;;;1.02;0.50;;;;;;;;;;20855891;28;20267;-83
2023/09/05 17:30:28;;;;;;;1.40;0.60;;;;;;;;;;20849522;28;20248;-82
2023/09/05 17:40:30;;;;;;;0.95;0.50;;;;;;;;;;20828835;28;20735;-82
2023/09/05 17:50:33;;;;;;;0.90;0.40;;;;;;;;;;20834440;28;20600;-82
2023/09/05 18:00:36;;;;;;;0.60;0.40;;;;;;;;;;20829471;28;20714;-83
2023/09/05 18:10:38;;;;;;;0.65;0.40;;;;;;;;;;20797732;28;20302;-82
2023/09/05 18:20:43;;;;;;;1.00;0.50;;;27.00;99.90;;;;;;20818503;28;20232;-82
2023/09/05 18:30:45;;;;;;;1.00;0.40;;;;;;;;;;20764513;28;20298;-84
2023/09/05 18:40:46;;;;;;;2.20;0.73;;;;;;;;;;20796663;28;20247;-84
2023/09/05 18:50:51;;;;;;;0.77;0.50;;;;;;;;;;20836051;28;20245;-84
2023/09/05 19:00:52;;;;;;;1.45;0.52;;;;;;;;;;20813259;28;20237;-84
2023/09/05 19:10:55;;;;;;;0.57;0.35;;;;;;;;;;20839252;28;20235;-84
2023/09/05 19:20:57;;;;;;;1.13;0.38;;;26.20;99.90;;;;;;20843435;28;20324;-84
2023/09/05 19:30:59;;;;;;;0.85;0.40;;;;;;;;;;20817310;28;20228;-85
2023/09/05 19:41:05;;;;;;;0.75;0.50;;;;;;;;;;20836998;28;20357;-84
2023/09/05 19:51:08;;;;;;;0.80;0.50;;;25.10;99.90;;;;;;20849336;28;20237;-84
2023/09/05 20:01:09;;;;;;;1.02;0.60;;;;;;;;;;20835954;28;20245;-82
2023/09/05 20:11:11;;;;;;;0.82;0.47;;;;;;;;;;20808430;28;20269;-83
2023/09/05 20:21:15;;;;;;;2.88;0.60;;;;;;;;;;20806605;28;20241;-83
2023/09/05 20:31:17;;;;;;;0.80;0.50;;;;;;;;;;20795202;28;20296;-85
2023/09/05 20:41:23;;;;;;;0.88;0.60;;;;;;;;;;20850760;28;20239;-83
2023/09/05 20:51:25;;;;;;;0.85;0.60;;;;;;;;;;20818023;28;20232;-85
2023/09/05 21:01:28;;;;;;;1.25;0.60;;;;;;;;;;20765801;28;20233;-85
2023/09/05 21:11:30;;;;;;;1.25;0.60;;;;;;;;;;20790379;28;20562;-84
2023/09/05 21:21:34;;;;;;;0.70;0.50;;;;;;;;;;20810991;28;20282;-82
2023/09/05 21:31:36;;;;;;;1.50;0.68;;;;;;;;;;20847053;28;20220;-82
2023/09/05 21:41:38;;;;;;;1.42;0.80;;;;;;;;;;20808047;28;20446;-85
2023/09/05 21:51:39;;;;;;;1.25;0.70;;;;;;;;;;20828472;28;20237;-84
2023/09/05 22:01:41;;;;;;;1.15;0.60;;;;;;;;;;20797413;28;20264;-82
2023/09/05 22:11:43;;;;;;;1.30;0.60;;;;;;;;;;20892670;28;20228;-84
2023/09/05 22:21:45;;;;;;;1.15;0.73;;;;;;;;;;20792147;28;20246;-84
2023/09/05 22:31:47;;;;;;;1.38;0.70;;;;;;;;;;20825276;23;20228;-68
2023/09/05 22:41:49;;;;;;;1.38;0.70;;;;;;;;;;20732888;28;20276;-68
2023/09/05 22:51:51;;;;;;;0.98;0.60;;;;;;;;;;20750733;28;20247;-68
2023/09/05 23:01:53;;;;;;;1.92;0.70;;;;;;;;;;20713444;28;20232;-69
2023/09/05 23:11:55;;;;;;;1.85;0.85;;;;;;;;;;20718897;28;20245;-69
2023/09/05 23:21:57;;;;;;;0.85;0.55;;;;;;;;;;20701958;28;20291;-68
2023/09/05 23:31:59;;;;;;;1.40;0.80;;;;;;;;;;20717137;28;20243;-68
2023/09/05 23:42:03;;;;;;;1.10;0.60;;;;;;;;;;20794103;23;20233;-68
2023/09/05 23:52:06;;;;;;;1.30;0.80;;;23.00;99.90;;;;;;20810626;28;20215;-68
